createdAt,value
2019-04-10T00:01:45.151Z,21.97
2019-04-10T00:06:48.483Z,19.13
2019-04-10T00:11:51.856Z,28.30
2019-04-10T00:16:56.342Z,28.83
2019-04-10T00:21:59.845Z,24.17
2019-04-10T00:27:04.075Z,21.23
2019-04-10T00:32:07.781Z,24.03
2019-04-10T00:37:21.854Z,33.10
2019-04-10T00:42:16.863Z,26.70
2019-04-10T00:47:21.146Z,27.35
2019-04-10T00:52:24.504Z,27.07
2019-04-10T00:57:27.818Z,27.97
2019-04-10T01:02:31.110Z,27.53
2019-04-10T01:07:39.541Z,29.93
2019-04-10T01:12:40.438Z,29.97
2019-04-10T03:21:29.605Z,25.63
2019-04-10T03:26:33.697Z,27.10
2019-04-10T03:31:38.943Z,25.13
2019-04-10T03:36:44.012Z,28.77
2019-04-10T03:41:48.387Z,31.83
2019-04-10T03:46:52.761Z,31.87
2019-04-10T03:51:57.007Z,29.20
2019-04-10T03:57:00.445Z,30.07
2019-04-10T04:02:03.720Z,34.13
2019-04-10T04:07:07.121Z,29.87
2019-04-10T04:12:10.576Z,29.00
2019-04-10T04:17:13.880Z,27.80
2019-04-10T04:22:17.190Z,34.40
2019-04-10T04:27:21.405Z,32.70
2019-04-10T04:32:25.865Z,29.00
2019-04-10T04:37:30.090Z,40.27
2019-04-10T04:42:33.540Z,28.47
2019-04-10T04:47:36.831Z,29.13
2019-04-10T04:52:41.104Z,34.67
2019-04-10T04:57:45.023Z,28.77
2019-04-10T05:02:48.391Z,31.87
2019-04-10T05:07:59.247Z,27.07
2019-04-10T05:12:57.845Z,24.53
2019-04-10T05:18:02.029Z,28.98
2019-04-10T05:23:08.198Z,27.98
2019-04-10T05:28:11.481Z,30.13
2019-04-10T05:33:14.776Z,32.50
2019-04-10T05:38:18.745Z,34.40
2019-04-10T05:43:22.057Z,23.97
2019-04-10T05:48:26.388Z,29.70
2019-04-10T05:53:29.734Z,36.17
2019-04-10T05:58:33.957Z,29.37
2019-04-10T06:03:37.267Z,34.93
2019-04-10T06:08:41.478Z,28.87
2019-04-10T06:13:45.205Z,28.67
2019-04-10T06:18:48.514Z,36.77
2019-04-10T06:23:51.897Z,31.60
2019-04-10T06:28:55.203Z,39.03
2019-04-10T06:33:58.520Z,33.77
2019-04-10T06:39:02.675Z,32.87
2019-04-10T06:44:05.990Z,29.93
2019-04-10T06:49:09.396Z,30.27
2019-04-10T06:54:13.023Z,27.73
2019-04-10T06:59:16.696Z,35.47
2019-04-10T07:04:24.213Z,37.17
2019-04-10T07:09:26.959Z,34.20
2019-04-10T07:14:29.994Z,29.30
2019-04-10T07:19:34.229Z,34.88
2019-04-10T07:24:41.160Z,35.03
2019-04-10T07:29:42.799Z,30.77
2019-04-10T07:34:46.737Z,38.37
2019-04-10T07:39:50.964Z,28.60
2019-04-10T07:44:56.341Z,38.70
2019-04-10T07:50:01.405Z,32.85
2019-04-10T07:55:06.567Z,36.07
2019-04-10T08:00:11.712Z,36.53
2019-04-10T08:05:15.006Z,40.73
2019-04-10T08:10:18.302Z,38.17
2019-04-10T08:15:21.596Z,37.07
2019-04-10T08:20:26.037Z,37.63
2019-04-10T08:25:29.409Z,40.03
2019-04-10T08:30:34.219Z,37.47
2019-04-10T08:35:37.867Z,42.10
2019-04-10T08:40:41.255Z,37.07
2019-04-10T08:45:48.400Z,41.63
2019-04-10T08:50:50.335Z,43.50
2019-04-10T08:55:54.593Z,42.93
2019-04-10T09:00:58.708Z,41.23
2019-04-10T09:06:02.923Z,30.27
2019-04-10T09:11:07.136Z,36.23
2019-04-10T09:16:10.555Z,42.07
2019-04-10T09:21:13.864Z,40.47
2019-04-10T09:26:17.184Z,42.27
2019-04-10T09:31:20.495Z,36.43
2019-04-10T09:36:24.882Z,40.50
2019-04-10T09:41:28.192Z,39.93
2019-04-10T09:46:31.508Z,47.73
2019-04-10T09:51:34.793Z,36.97
2019-04-10T09:56:38.560Z,36.10
2019-04-10T10:01:42.273Z,42.97
2019-04-10T10:06:45.597Z,41.67
2019-04-10T10:11:49.166Z,39.47
2019-04-10T10:16:52.663Z,46.73
2019-04-10T10:21:56.807Z,44.87
2019-04-10T10:27:00.225Z,39.87
2019-04-10T10:32:04.540Z,34.80
2019-04-10T10:37:08.366Z,43.73
2019-04-10T10:42:11.774Z,37.53
2019-04-10T10:47:15.887Z,36.27
2019-04-10T10:52:19.463Z,35.40
2019-04-10T10:57:22.828Z,36.07
2019-04-10T11:02:26.258Z,42.97
2019-04-10T11:07:31.026Z,42.10
2019-04-10T11:12:35.547Z,41.70
2019-04-10T11:17:40.507Z,40.57
2019-04-10T11:22:44.687Z,41.50
2019-04-10T11:27:48.156Z,37.90
2019-04-10T11:32:52.430Z,36.03
2019-04-10T11:37:59.027Z,37.90
2019-04-10T11:43:03.867Z,41.13
2019-04-10T11:48:06.063Z,39.17
2019-04-10T11:53:10.435Z,39.10
2019-04-10T12:03:19.034Z,41.97
2019-04-10T12:08:45.152Z,36.43
2019-04-10T12:13:27.411Z,37.47
2019-04-10T12:18:30.820Z,38.13
2019-04-10T12:23:34.719Z,35.53
2019-04-10T12:28:38.206Z,40.33
2019-04-10T12:33:42.453Z,36.37
2019-04-10T12:38:45.750Z,40.17
2019-04-10T12:43:49.336Z,41.13
2019-04-10T12:48:52.766Z,41.17
2019-04-10T12:53:56.204Z,41.37
2019-04-10T12:58:59.454Z,41.10
2019-04-10T13:04:03.420Z,37.50
2019-04-10T13:09:12.007Z,39.47
2019-04-10T13:14:12.613Z,39.70
2019-04-10T13:19:16.599Z,38.97
2019-04-10T13:24:19.930Z,34.37
2019-04-10T13:29:23.236Z,33.20
2019-04-10T13:34:26.997Z,36.50
2019-04-10T13:39:31.650Z,37.57
2019-04-10T13:44:34.962Z,34.60
2019-04-10T13:49:38.537Z,39.47
2019-04-10T13:54:42.915Z,34.15
2019-04-10T13:59:46.993Z,37.87
2019-04-10T14:04:51.196Z,34.90
2019-04-10T14:09:54.653Z,44.60
2019-04-10T14:14:57.942Z,36.07
2019-04-10T14:20:01.253Z,34.07
2019-04-10T14:25:07.428Z,29.83
2019-04-10T14:30:15.324Z,31.97
2019-04-10T14:35:19.123Z,27.97
2019-04-10T14:40:22.495Z,27.57
2019-04-10T14:45:25.802Z,33.30
2019-04-10T14:50:29.514Z,32.70
2019-04-10T14:55:33.424Z,28.90
2019-04-10T15:00:39.175Z,33.23
2019-04-10T15:05:49.241Z,31.33
2019-04-10T15:10:47.712Z,35.83
2019-04-10T15:15:51.063Z,29.30
2019-04-10T15:20:54.460Z,27.90
2019-04-10T15:25:57.754Z,32.83
2019-04-10T15:31:01.408Z,33.03
2019-04-10T15:36:04.827Z,30.60
2019-04-10T15:41:08.473Z,34.23
2019-04-10T15:46:12.837Z,32.50
2019-04-10T15:51:16.271Z,37.93
2019-04-10T15:56:20.449Z,30.93
2019-04-10T16:01:26.607Z,27.90
2019-04-10T16:06:29.383Z,36.83
2019-04-10T16:11:43.821Z,33.67
2019-04-10T16:17:04.725Z,30.80
2019-04-10T16:22:10.559Z,37.53
2019-04-10T16:27:14.036Z,31.67
2019-04-10T16:32:17.418Z,32.67
2019-04-10T16:37:20.726Z,33.70
2019-04-10T16:42:24.438Z,30.30
2019-04-10T16:47:28.266Z,29.47
2019-04-10T16:52:31.598Z,31.87
2019-04-10T16:57:34.952Z,31.70
2019-04-10T17:02:38.262Z,28.93
2019-04-10T17:07:41.577Z,29.10
2019-04-10T17:12:44.878Z,33.63
2019-04-10T17:17:48.191Z,34.17
2019-04-10T17:22:52.065Z,31.97
2019-04-10T17:27:56.331Z,28.60
2019-04-10T17:33:00.636Z,33.27
2019-04-10T17:38:04.605Z,32.03
2019-04-10T17:43:08.565Z,32.03
2019-04-10T17:48:12.023Z,35.37
2019-04-10T17:53:17.212Z,32.97
2019-04-10T17:58:21.297Z,32.47
2019-04-10T18:03:25.493Z,26.77
2019-04-10T18:08:30.126Z,34.33
2019-04-10T18:13:34.153Z,36.37
2019-04-10T18:18:37.971Z,30.83
2019-04-10T18:23:41.924Z,28.13
2019-04-10T18:28:45.649Z,30.53
2019-04-10T18:33:49.022Z,29.80
2019-04-10T18:38:52.678Z,31.03
2019-04-10T18:43:58.473Z,30.37
2019-04-10T18:49:03.168Z,31.60
2019-04-10T18:54:08.005Z,31.10
2019-04-10T18:59:13.260Z,25.93
2019-04-10T19:04:30.737Z,25.83
2019-04-10T19:09:36.805Z,26.60
2019-04-10T19:14:40.624Z,25.83
2019-04-10T19:19:45.365Z,27.97
2019-04-10T19:24:50.201Z,30.07
2019-04-10T19:29:53.611Z,24.10
2019-04-10T19:34:57.220Z,19.27
2019-04-10T19:40:00.619Z,15.37
2019-04-10T19:45:05.968Z,13.80
2019-04-10T19:50:09.365Z,20.10
2019-04-10T19:55:13.569Z,17.33
2019-04-10T20:00:20.008Z,14.57
2019-04-10T20:05:23.456Z,9.07
2019-04-10T20:10:27.603Z,13.80
2019-04-10T20:15:31.098Z,14.93
2019-04-10T20:20:35.808Z,12.20
2019-04-10T20:25:39.130Z,11.67
2019-04-10T20:30:44.516Z,11.87
2019-04-10T20:35:48.797Z,9.17
2019-04-10T20:40:52.213Z,8.00
2019-04-10T20:45:55.943Z,10.77
2019-04-10T20:50:59.260Z,7.47
2019-04-10T20:56:02.577Z,10.50
2019-04-10T21:01:06.114Z,9.07
2019-04-10T21:06:09.517Z,9.37
2019-04-10T21:11:13.863Z,8.13
2019-04-10T21:16:17.711Z,9.07
2019-04-10T21:21:22.194Z,8.53
2019-04-10T21:26:25.645Z,12.00
2019-04-10T21:31:48.953Z,12.10
2019-04-10T21:36:53.307Z,9.70
2019-04-10T21:42:09.337Z,9.67
2019-04-10T21:47:01.907Z,7.63
2019-04-10T21:52:05.748Z,12.80
2019-04-10T21:57:09.675Z,10.83
2019-04-10T22:02:15.127Z,9.27
2019-04-10T22:07:34.837Z,8.00
2019-04-10T22:12:43.797Z,8.30
2019-04-10T22:17:44.564Z,12.17
2019-04-10T22:22:47.903Z,10.73
2019-04-10T22:27:52.205Z,9.23
2019-04-10T22:32:55.705Z,12.73
2019-04-10T22:37:58.942Z,10.07
2019-04-10T22:43:03.279Z,10.53
2019-04-10T22:48:06.613Z,12.37
2019-04-10T22:53:09.903Z,9.23
2019-04-10T22:58:13.199Z,11.08
2019-04-10T23:03:16.490Z,12.50
2019-04-10T23:08:19.877Z,11.57
2019-04-10T23:13:23.763Z,9.00
2019-04-10T23:18:27.607Z,8.13
2019-04-10T23:23:32.790Z,11.67
2019-04-10T23:28:36.191Z,11.33
2019-04-10T23:33:39.881Z,8.70
2019-04-10T23:38:43.782Z,17.27
2019-04-10T23:43:48.094Z,12.03
2019-04-10T23:48:51.528Z,12.60
2019-04-10T23:53:55.077Z,14.13
2019-04-10T23:58:58.444Z,14.87
